sensor_id;sensor_type;location;lat;lon;timestamp;temperature;humidity
27890;DHT22;15238;49.082;9.102;2022-11-20T00:00:41;3.40;99.90
27890;DHT22;15238;49.082;9.102;2022-11-20T00:02:41;3.50;99.90
27890;DHT22;15238;49.082;9.102;2022-11-20T00:04:42;3.50;99.90
27890;DHT22;15238;49.082;9.102;2022-11-20T00:06:42;3.50;99.90
27890;DHT22;15238;49.082;9.102;2022-11-20T00:08:43;3.50;99.90
27890;DHT22;15238;49.082;9.102;2022-11-20T00:10:44;3.60;99.90
27890;DHT22;15238;49.082;9.102;2022-11-20T00:12:44;3.60;99.90
27890;DHT22;15238;49.082;9.102;2022-11-20T00:14:45;3.70;99.90
27890;DHT22;15238;49.082;9.102;2022-11-20T00:16:45;3.70;99.90
27890;DHT22;15238;49.082;9.102;2022-11-20T00:18:47;3.70;99.90
27890;DHT22;15238;49.082;9.102;2022-11-20T00:20:47;3.80;99.90
27890;DHT22;15238;49.082;9.102;2022-11-20T00:22:49;3.80;99.90
27890;DHT22;15238;49.082;9.102;2022-11-20T00:24:49;3.80;99.90
27890;DHT22;15238;49.082;9.102;2022-11-20T00:26:50;3.80;99.90
27890;DHT22;15238;49.082;9.102;2022-11-20T00:28:55;3.90;99.90
27890;DHT22;15238;49.082;9.102;2022-11-20T00:31:03;3.90;99.90
27890;DHT22;15238;49.082;9.102;2022-11-20T00:33:04;3.80;99.90
27890;DHT22;15238;49.082;9.102;2022-11-20T00:35:05;3.80;99.90
27890;DHT22;15238;49.082;9.102;2022-11-20T00:37:05;3.80;99.90
27890;DHT22;15238;49.082;9.102;2022-11-20T00:39:06;3.70;99.90
27890;DHT22;15238;49.082;9.102;2022-11-20T00:41:09;3.60;99.90
27890;DHT22;15238;49.082;9.102;2022-11-20T00:43:09;3.60;99.90
27890;DHT22;15238;49.082;9.102;2022-11-20T00:45:10;3.70;99.90
27890;DHT22;15238;49.082;9.102;2022-11-20T00:47:10;3.60;99.90
27890;DHT22;15238;49.082;9.102;2022-11-20T00:49:11;3.60;99.90
27890;DHT22;15238;49.082;9.102;2022-11-20T00:51:14;3.60;99.90
27890;DHT22;15238;49.082;9.102;2022-11-20T00:53:14;3.60;99.90
27890;DHT22;15238;49.082;9.102;2022-11-20T00:55:15;3.60;99.90
27890;DHT22;15238;49.082;9.102;2022-11-20T00:57:15;3.50;99.90
27890;DHT22;15238;49.082;9.102;2022-11-20T00:59:16;3.60;99.90
27890;DHT22;15238;49.082;9.102;2022-11-20T01:01:22;3.60;99.90
27890;DHT22;15238;49.082;9.102;2022-11-20T01:03:24;3.60;99.90
27890;DHT22;15238;49.082;9.102;2022-11-20T01:05:24;3.60;99.90
27890;DHT22;15238;49.082;9.102;2022-11-20T01:07:25;3.70;99.90
27890;DHT22;15238;49.082;9.102;2022-11-20T01:09:26;3.70;99.90
27890;DHT22;15238;49.082;9.102;2022-11-20T01:11:29;3.70;99.90
27890;DHT22;15238;49.082;9.102;2022-11-20T01:13:31;3.70;99.90
27890;DHT22;15238;49.082;9.102;2022-11-20T01:15:37;3.80;99.90
27890;DHT22;15238;49.082;9.102;2022-11-20T01:17:38;3.90;99.90
27890;DHT22;15238;49.082;9.102;2022-11-20T01:19:38;3.90;99.90
27890;DHT22;15238;49.082;9.102;2022-11-20T01:21:41;3.90;99.90
27890;DHT22;15238;49.082;9.102;2022-11-20T01:23:43;3.90;99.90
27890;DHT22;15238;49.082;9.102;2022-11-20T01:25:43;3.90;99.90
27890;DHT22;15238;49.082;9.102;2022-11-20T01:27:44;4.00;99.90
27890;DHT22;15238;49.082;9.102;2022-11-20T01:29:44;3.90;99.90
27890;DHT22;15238;49.082;9.102;2022-11-20T01:31:45;4.00;99.90
27890;DHT22;15238;49.082;9.102;2022-11-20T01:33:47;3.90;99.90
27890;DHT22;15238;49.082;9.102;2022-11-20T01:35:48;3.80;99.90
27890;DHT22;15238;49.082;9.102;2022-11-20T01:37:50;3.80;99.90
27890;DHT22;15238;49.082;9.102;2022-11-20T01:39:50;3.90;99.90
27890;DHT22;15238;49.082;9.102;2022-11-20T01:41:52;3.90;99.90
27890;DHT22;15238;49.082;9.102;2022-11-20T01:44:14;3.90;99.90
27890;DHT22;15238;49.082;9.102;2022-11-20T01:46:19;3.80;99.90
27890;DHT22;15238;49.082;9.102;2022-11-20T01:48:22;3.90;99.90
27890;DHT22;15238;49.082;9.102;2022-11-20T01:50:26;3.90;99.90
27890;DHT22;15238;49.082;9.102;2022-11-20T01:52:42;4.00;99.90
27890;DHT22;15238;49.082;9.102;2022-11-20T01:55:13;4.00;99.90
27890;DHT22;15238;49.082;9.102;2022-11-20T01:57:15;4.10;99.90
27890;DHT22;15238;49.082;9.102;2022-11-20T01:59:17;4.10;99.90
27890;DHT22;15238;49.082;9.102;2022-11-20T02:01:19;4.10;99.90
27890;DHT22;15238;49.082;9.102;2022-11-20T02:03:20;4.20;99.90
27890;DHT22;15238;49.082;9.102;2022-11-20T02:05:31;4.20;99.90
27890;DHT22;15238;49.082;9.102;2022-11-20T02:07:32;4.30;99.90
27890;DHT22;15238;49.082;9.102;2022-11-20T02:09:33;4.30;99.90
27890;DHT22;15238;49.082;9.102;2022-11-20T02:11:33;4.30;99.90
27890;DHT22;15238;49.082;9.102;2022-11-20T02:13:34;4.30;99.90
27890;DHT22;15238;49.082;9.102;2022-11-20T02:15:45;4.40;99.90
27890;DHT22;15238;49.082;9.102;2022-11-20T02:17:45;4.40;99.90
27890;DHT22;15238;49.082;9.102;2022-11-20T02:19:46;4.40;99.90
27890;DHT22;15238;49.082;9.102;2022-11-20T02:21:53;4.40;99.90
27890;DHT22;15238;49.082;9.102;2022-11-20T02:24:05;4.50;99.90
27890;DHT22;15238;49.082;9.102;2022-11-20T02:26:10;4.50;99.90
27890;DHT22;15238;49.082;9.102;2022-11-20T02:28:12;4.50;99.90
27890;DHT22;15238;49.082;9.102;2022-11-20T02:30:12;4.60;99.90
27890;DHT22;15238;49.082;9.102;2022-11-20T02:32:20;4.60;99.90
27890;DHT22;15238;49.082;9.102;2022-11-20T02:34:21;4.60;99.90
27890;DHT22;15238;49.082;9.102;2022-11-20T02:36:21;4.60;99.90
27890;DHT22;15238;49.082;9.102;2022-11-20T02:38:23;4.70;99.90
27890;DHT22;15238;49.082;9.102;2022-11-20T02:40:24;4.70;99.90
27890;DHT22;15238;49.082;9.102;2022-11-20T02:42:24;4.70;99.90
27890;DHT22;15238;49.082;9.102;2022-11-20T02:44:25;4.70;99.90
27890;DHT22;15238;49.082;9.102;2022-11-20T02:46:25;4.70;99.90
27890;DHT22;15238;49.082;9.102;2022-11-20T02:48:26;4.80;99.90
27890;DHT22;15238;49.082;9.102;2022-11-20T02:50:26;4.80;99.90
27890;DHT22;15238;49.082;9.102;2022-11-20T02:52:27;4.80;99.90
27890;DHT22;15238;49.082;9.102;2022-11-20T02:54:28;4.90;99.90
27890;DHT22;15238;49.082;9.102;2022-11-20T02:56:28;4.90;99.90
27890;DHT22;15238;49.082;9.102;2022-11-20T02:58:29;4.90;99.90
27890;DHT22;15238;49.082;9.102;2022-11-20T03:00:29;5.00;99.90
27890;DHT22;15238;49.082;9.102;2022-11-20T03:02:30;5.00;99.90
27890;DHT22;15238;49.082;9.102;2022-11-20T03:04:31;5.00;99.90
27890;DHT22;15238;49.082;9.102;2022-11-20T03:06:32;5.10;99.90
27890;DHT22;15238;49.082;9.102;2022-11-20T03:08:32;5.10;99.90
27890;DHT22;15238;49.082;9.102;2022-11-20T03:10:33;5.10;99.90
27890;DHT22;15238;49.082;9.102;2022-11-20T03:12:33;5.20;99.90
27890;DHT22;15238;49.082;9.102;2022-11-20T03:14:34;5.20;99.90
27890;DHT22;15238;49.082;9.102;2022-11-20T03:16:35;5.30;99.90
27890;DHT22;15238;49.082;9.102;2022-11-20T03:18:35;5.30;99.90
27890;DHT22;15238;49.082;9.102;2022-11-20T03:20:36;5.30;99.90
27890;DHT22;15238;49.082;9.102;2022-11-20T03:22:36;5.30;99.90
27890;DHT22;15238;49.082;9.102;2022-11-20T03:24:37;5.40;99.90
27890;DHT22;15238;49.082;9.102;2022-11-20T03:26:39;5.40;99.90
27890;DHT22;15238;49.082;9.102;2022-11-20T03:28:41;5.40;99.90
27890;DHT22;15238;49.082;9.102;2022-11-20T03:30:42;5.50;99.90
27890;DHT22;15238;49.082;9.102;2022-11-20T03:32:43;5.60;99.90
27890;DHT22;15238;49.082;9.102;2022-11-20T03:34:43;5.60;99.90
27890;DHT22;15238;49.082;9.102;2022-11-20T03:36:44;5.60;99.90
27890;DHT22;15238;49.082;9.102;2022-11-20T03:38:45;5.70;99.90
27890;DHT22;15238;49.082;9.102;2022-11-20T03:40:46;5.70;99.90
27890;DHT22;15238;49.082;9.102;2022-11-20T03:42:46;5.80;99.90
27890;DHT22;15238;49.082;9.102;2022-11-20T03:44:47;5.90;99.90
27890;DHT22;15238;49.082;9.102;2022-11-20T03:46:47;6.00;99.90
27890;DHT22;15238;49.082;9.102;2022-11-20T03:48:48;6.00;99.90
27890;DHT22;15238;49.082;9.102;2022-11-20T03:50:49;6.10;99.90
27890;DHT22;15238;49.082;9.102;2022-11-20T03:52:49;6.10;99.90
27890;DHT22;15238;49.082;9.102;2022-11-20T03:54:50;6.20;99.90
27890;DHT22;15238;49.082;9.102;2022-11-20T03:56:50;6.20;99.90
27890;DHT22;15238;49.082;9.102;2022-11-20T03:58:51;6.30;99.90
27890;DHT22;15238;49.082;9.102;2022-11-20T04:00:51;6.30;99.90
27890;DHT22;15238;49.082;9.102;2022-11-20T04:02:52;6.40;99.90
27890;DHT22;15238;49.082;9.102;2022-11-20T04:04:52;6.40;99.90
27890;DHT22;15238;49.082;9.102;2022-11-20T04:06:53;6.40;99.90
27890;DHT22;15238;49.082;9.102;2022-11-20T04:08:57;6.40;99.90
27890;DHT22;15238;49.082;9.102;2022-11-20T04:11:19;6.40;99.90
27890;DHT22;15238;49.082;9.102;2022-11-20T04:13:19;6.40;99.90
27890;DHT22;15238;49.082;9.102;2022-11-20T04:15:20;6.40;99.90
27890;DHT22;15238;49.082;9.102;2022-11-20T04:17:20;6.40;99.90
27890;DHT22;15238;49.082;9.102;2022-11-20T04:19:21;6.40;99.90
27890;DHT22;15238;49.082;9.102;2022-11-20T04:21:22;6.50;99.90
27890;DHT22;15238;49.082;9.102;2022-11-20T04:23:23;6.50;99.90
27890;DHT22;15238;49.082;9.102;2022-11-20T04:25:24;6.50;99.90
27890;DHT22;15238;49.082;9.102;2022-11-20T04:27:24;6.50;99.90
27890;DHT22;15238;49.082;9.102;2022-11-20T04:29:25;6.40;99.90
27890;DHT22;15238;49.082;9.102;2022-11-20T04:31:28;6.40;99.90
27890;DHT22;15238;49.082;9.102;2022-11-20T04:33:28;6.40;99.90
27890;DHT22;15238;49.082;9.102;2022-11-20T04:35:29;6.50;99.90
27890;DHT22;15238;49.082;9.102;2022-11-20T04:37:29;6.40;99.90
27890;DHT22;15238;49.082;9.102;2022-11-20T04:39:30;6.50;99.90
27890;DHT22;15238;49.082;9.102;2022-11-20T04:41:33;6.40;99.90
27890;DHT22;15238;49.082;9.102;2022-11-20T04:43:33;6.50;99.90
27890;DHT22;15238;49.082;9.102;2022-11-20T04:45:34;6.40;99.90
27890;DHT22;15238;49.082;9.102;2022-11-20T04:47:35;6.50;99.90
27890;DHT22;15238;49.082;9.102;2022-11-20T04:49:35;6.50;99.90
27890;DHT22;15238;49.082;9.102;2022-11-20T04:51:36;6.50;99.90
27890;DHT22;15238;49.082;9.102;2022-11-20T04:53:37;6.50;99.90
27890;DHT22;15238;49.082;9.102;2022-11-20T04:55:38;6.50;99.90
27890;DHT22;15238;49.082;9.102;2022-11-20T04:57:38;6.50;99.90
27890;DHT22;15238;49.082;9.102;2022-11-20T04:59:39;6.50;99.90
27890;DHT22;15238;49.082;9.102;2022-11-20T05:01:39;6.50;99.90
27890;DHT22;15238;49.082;9.102;2022-11-20T05:03:41;6.50;99.90
27890;DHT22;15238;49.082;9.102;2022-11-20T05:05:41;6.50;99.90
27890;DHT22;15238;49.082;9.102;2022-11-20T05:07:42;6.50;99.90
27890;DHT22;15238;49.082;9.102;2022-11-20T05:09:42;6.50;99.90
27890;DHT22;15238;49.082;9.102;2022-11-20T05:11:43;6.50;99.90
27890;DHT22;15238;49.082;9.102;2022-11-20T05:13:44;6.50;99.90
27890;DHT22;15238;49.082;9.102;2022-11-20T05:15:44;6.50;99.90
27890;DHT22;15238;49.082;9.102;2022-11-20T05:17:48;6.50;99.90
27890;DHT22;15238;49.082;9.102;2022-11-20T05:19:49;6.60;99.90
27890;DHT22;15238;49.082;9.102;2022-11-20T05:21:50;6.50;99.90
27890;DHT22;15238;49.082;9.102;2022-11-20T05:23:50;6.60;99.90
27890;DHT22;15238;49.082;9.102;2022-11-20T05:25:54;6.60;99.90
27890;DHT22;15238;49.082;9.102;2022-11-20T05:27:55;6.60;99.90
27890;DHT22;15238;49.082;9.102;2022-11-20T05:29:56;6.60;99.90
27890;DHT22;15238;49.082;9.102;2022-11-20T05:31:56;6.60;99.90
27890;DHT22;15238;49.082;9.102;2022-11-20T05:33:57;6.60;99.90
27890;DHT22;15238;49.082;9.102;2022-11-20T05:36:04;6.60;99.90
27890;DHT22;15238;49.082;9.102;2022-11-20T05:38:04;6.60;99.90
27890;DHT22;15238;49.082;9.102;2022-11-20T05:40:05;6.60;99.90
27890;DHT22;15238;49.082;9.102;2022-11-20T05:42:06;6.50;99.90
27890;DHT22;15238;49.082;9.102;2022-11-20T05:44:25;6.60;99.90
27890;DHT22;15238;49.082;9.102;2022-11-20T05:46:26;6.60;99.90
27890;DHT22;15238;49.082;9.102;2022-11-20T05:48:26;6.60;99.90
27890;DHT22;15238;49.082;9.102;2022-11-20T05:50:27;6.60;99.90
27890;DHT22;15238;49.082;9.102;2022-11-20T05:52:29;6.60;99.90
27890;DHT22;15238;49.082;9.102;2022-11-20T05:54:29;6.60;99.90
27890;DHT22;15238;49.082;9.102;2022-11-20T05:56:30;6.60;99.90
27890;DHT22;15238;49.082;9.102;2022-11-20T05:58:31;6.70;99.90
27890;DHT22;15238;49.082;9.102;2022-11-20T06:00:32;6.70;99.90
27890;DHT22;15238;49.082;9.102;2022-11-20T06:02:35;6.70;99.90
27890;DHT22;15238;49.082;9.102;2022-11-20T06:04:36;6.70;99.90
27890;DHT22;15238;49.082;9.102;2022-11-20T06:06:36;6.70;99.90
27890;DHT22;15238;49.082;9.102;2022-11-20T06:08:37;6.60;99.90
27890;DHT22;15238;49.082;9.102;2022-11-20T06:10:37;6.70;99.90
27890;DHT22;15238;49.082;9.102;2022-11-20T06:12:38;6.70;99.90
27890;DHT22;15238;49.082;9.102;2022-11-20T06:14:38;6.80;99.90
27890;DHT22;15238;49.082;9.102;2022-11-20T06:16:39;6.80;99.90
27890;DHT22;15238;49.082;9.102;2022-11-20T06:18:40;6.80;99.90
27890;DHT22;15238;49.082;9.102;2022-11-20T06:20:40;6.70;99.90
27890;DHT22;15238;49.082;9.102;2022-11-20T06:22:41;6.70;99.90
27890;DHT22;15238;49.082;9.102;2022-11-20T06:24:41;6.80;99.90
27890;DHT22;15238;49.082;9.102;2022-11-20T06:26:42;6.80;99.90
27890;DHT22;15238;49.082;9.102;2022-11-20T06:28:43;6.80;99.90
27890;DHT22;15238;49.082;9.102;2022-11-20T06:30:46;6.80;99.90
27890;DHT22;15238;49.082;9.102;2022-11-20T06:32:47;6.80;99.90
27890;DHT22;15238;49.082;9.102;2022-11-20T06:34:47;6.80;99.90
27890;DHT22;15238;49.082;9.102;2022-11-20T06:36:48;6.80;99.90
27890;DHT22;15238;49.082;9.102;2022-11-20T06:38:49;6.80;99.90
27890;DHT22;15238;49.082;9.102;2022-11-20T06:40:49;6.80;99.90
27890;DHT22;15238;49.082;9.102;2022-11-20T06:42:50;6.80;99.90
27890;DHT22;15238;49.082;9.102;2022-11-20T06:44:50;6.70;99.90
27890;DHT22;15238;49.082;9.102;2022-11-20T06:46:51;6.80;99.90
27890;DHT22;15238;49.082;9.102;2022-11-20T06:48:51;6.80;99.90
27890;DHT22;15238;49.082;9.102;2022-11-20T06:50:52;6.70;99.90
27890;DHT22;15238;49.082;9.102;2022-11-20T06:52:52;6.80;99.90
27890;DHT22;15238;49.082;9.102;2022-11-20T06:54:53;6.80;99.90
27890;DHT22;15238;49.082;9.102;2022-11-20T06:56:53;6.80;99.90
27890;DHT22;15238;49.082;9.102;2022-11-20T06:58:54;6.80;99.90
27890;DHT22;15238;49.082;9.102;2022-11-20T07:00:59;6.80;99.90
27890;DHT22;15238;49.082;9.102;2022-11-20T07:03:03;6.70;99.90
27890;DHT22;15238;49.082;9.102;2022-11-20T07:05:04;6.70;99.90
27890;DHT22;15238;49.082;9.102;2022-11-20T07:07:05;6.70;99.90
27890;DHT22;15238;49.082;9.102;2022-11-20T07:09:06;6.70;99.90
27890;DHT22;15238;49.082;9.102;2022-11-20T07:11:07;6.60;99.90
27890;DHT22;15238;49.082;9.102;2022-11-20T07:13:08;6.60;99.90
27890;DHT22;15238;49.082;9.102;2022-11-20T07:15:08;6.60;99.90
27890;DHT22;15238;49.082;9.102;2022-11-20T07:17:09;6.60;99.90
27890;DHT22;15238;49.082;9.102;2022-11-20T07:19:09;6.60;99.90
27890;DHT22;15238;49.082;9.102;2022-11-20T07:21:10;6.60;99.90
27890;DHT22;15238;49.082;9.102;2022-11-20T07:23:11;6.50;99.90
27890;DHT22;15238;49.082;9.102;2022-11-20T07:25:11;6.50;99.90
27890;DHT22;15238;49.082;9.102;2022-11-20T07:27:12;6.60;99.90
27890;DHT22;15238;49.082;9.102;2022-11-20T07:29:12;6.60;99.90
27890;DHT22;15238;49.082;9.102;2022-11-20T07:31:13;6.60;99.90
27890;DHT22;15238;49.082;9.102;2022-11-20T07:33:14;6.60;99.90
27890;DHT22;15238;49.082;9.102;2022-11-20T07:35:14;6.60;99.90
27890;DHT22;15238;49.082;9.102;2022-11-20T07:37:15;6.60;99.90
27890;DHT22;15238;49.082;9.102;2022-11-20T07:39:16;6.60;99.90
27890;DHT22;15238;49.082;9.102;2022-11-20T07:41:16;6.60;99.90
27890;DHT22;15238;49.082;9.102;2022-11-20T07:43:17;6.60;99.90
27890;DHT22;15238;49.082;9.102;2022-11-20T07:45:19;6.60;99.90
27890;DHT22;15238;49.082;9.102;2022-11-20T07:47:19;6.60;99.90
27890;DHT22;15238;49.082;9.102;2022-11-20T07:49:21;6.60;99.90
27890;DHT22;15238;49.082;9.102;2022-11-20T07:51:21;6.60;99.90
27890;DHT22;15238;49.082;9.102;2022-11-20T07:53:23;6.70;99.90
27890;DHT22;15238;49.082;9.102;2022-11-20T07:55:24;6.70;99.90
27890;DHT22;15238;49.082;9.102;2022-11-20T07:57:24;6.70;99.90
27890;DHT22;15238;49.082;9.102;2022-11-20T07:59:25;6.70;99.90
27890;DHT22;15238;49.082;9.102;2022-11-20T08:01:25;6.70;99.90
27890;DHT22;15238;49.082;9.102;2022-11-20T08:03:26;6.80;99.90
27890;DHT22;15238;49.082;9.102;2022-11-20T08:05:26;6.80;99.90
27890;DHT22;15238;49.082;9.102;2022-11-20T08:07:27;6.80;99.90
27890;DHT22;15238;49.082;9.102;2022-11-20T08:09:27;6.80;99.90
27890;DHT22;15238;49.082;9.102;2022-11-20T08:11:29;6.70;99.90
27890;DHT22;15238;49.082;9.102;2022-11-20T08:13:48;6.70;99.90
27890;DHT22;15238;49.082;9.102;2022-11-20T08:16:07;6.70;99.90
27890;DHT22;15238;49.082;9.102;2022-11-20T08:18:09;6.60;99.90
27890;DHT22;15238;49.082;9.102;2022-11-20T08:20:11;6.70;99.90
27890;DHT22;15238;49.082;9.102;2022-11-20T08:22:11;6.70;99.90
27890;DHT22;15238;49.082;9.102;2022-11-20T08:24:12;6.70;99.90
27890;DHT22;15238;49.082;9.102;2022-11-20T08:26:13;6.60;99.90
27890;DHT22;15238;49.082;9.102;2022-11-20T08:28:13;6.60;99.90
27890;DHT22;15238;49.082;9.102;2022-11-20T08:30:14;6.60;99.90
27890;DHT22;15238;49.082;9.102;2022-11-20T08:32:14;6.60;99.90
27890;DHT22;15238;49.082;9.102;2022-11-20T08:34:15;6.60;99.90
27890;DHT22;15238;49.082;9.102;2022-11-20T08:36:16;6.60;99.90
27890;DHT22;15238;49.082;9.102;2022-11-20T08:38:17;6.60;99.90
27890;DHT22;15238;49.082;9.102;2022-11-20T08:40:17;6.70;99.90
27890;DHT22;15238;49.082;9.102;2022-11-20T08:42:18;6.80;99.90
27890;DHT22;15238;49.082;9.102;2022-11-20T08:44:18;6.70;99.90
27890;DHT22;15238;49.082;9.102;2022-11-20T08:46:20;6.80;99.90
27890;DHT22;15238;49.082;9.102;2022-11-20T08:48:20;6.80;99.90
27890;DHT22;15238;49.082;9.102;2022-11-20T08:50:21;6.80;99.90
27890;DHT22;15238;49.082;9.102;2022-11-20T08:52:22;6.80;99.90
27890;DHT22;15238;49.082;9.102;2022-11-20T08:54:22;6.80;99.90
27890;DHT22;15238;49.082;9.102;2022-11-20T08:56:23;6.80;99.90
27890;DHT22;15238;49.082;9.102;2022-11-20T08:58:24;6.80;99.90
27890;DHT22;15238;49.082;9.102;2022-11-20T09:00:25;6.90;99.90
27890;DHT22;15238;49.082;9.102;2022-11-20T09:02:26;6.80;99.90
27890;DHT22;15238;49.082;9.102;2022-11-20T09:04:27;6.90;99.90
27890;DHT22;15238;49.082;9.102;2022-11-20T09:06:27;6.80;99.90
27890;DHT22;15238;49.082;9.102;2022-11-20T09:08:28;6.80;99.90
27890;DHT22;15238;49.082;9.102;2022-11-20T09:10:29;6.80;99.90
27890;DHT22;15238;49.082;9.102;2022-11-20T09:12:30;6.80;99.90
27890;DHT22;15238;49.082;9.102;2022-11-20T09:14:30;6.80;99.90
27890;DHT22;15238;49.082;9.102;2022-11-20T09:16:31;7.00;99.90
27890;DHT22;15238;49.082;9.102;2022-11-20T09:18:32;7.00;99.90
27890;DHT22;15238;49.082;9.102;2022-11-20T09:20:33;7.00;99.90
27890;DHT22;15238;49.082;9.102;2022-11-20T09:22:34;7.10;99.90
27890;DHT22;15238;49.082;9.102;2022-11-20T09:24:34;7.10;99.90
27890;DHT22;15238;49.082;9.102;2022-11-20T09:26:35;7.20;99.90
27890;DHT22;15238;49.082;9.102;2022-11-20T09:28:35;7.20;99.90
27890;DHT22;15238;49.082;9.102;2022-11-20T09:30:36;7.20;99.90
27890;DHT22;15238;49.082;9.102;2022-11-20T09:32:38;7.20;99.90
27890;DHT22;15238;49.082;9.102;2022-11-20T09:34:39;7.30;99.90
27890;DHT22;15238;49.082;9.102;2022-11-20T09:36:39;7.30;99.90
27890;DHT22;15238;49.082;9.102;2022-11-20T09:38:40;7.30;99.90
27890;DHT22;15238;49.082;9.102;2022-11-20T09:40:47;7.30;99.90
27890;DHT22;15238;49.082;9.102;2022-11-20T09:43:03;7.30;99.90
27890;DHT22;15238;49.082;9.102;2022-11-20T09:45:31;7.30;99.90
27890;DHT22;15238;49.082;9.102;2022-11-20T09:50:19;7.50;99.90
27890;DHT22;15238;49.082;9.102;2022-11-20T09:54:33;7.50;99.90
27890;DHT22;15238;49.082;9.102;2022-11-20T09:56:38;7.50;99.90
27890;DHT22;15238;49.082;9.102;2022-11-20T09:58:41;7.60;99.90
27890;DHT22;15238;49.082;9.102;2022-11-20T10:00:43;7.60;99.90
27890;DHT22;15238;49.082;9.102;2022-11-20T10:02:46;7.70;99.90
27890;DHT22;15238;49.082;9.102;2022-11-20T10:05:02;7.70;99.90
27890;DHT22;15238;49.082;9.102;2022-11-20T10:07:31;7.70;99.90
27890;DHT22;15238;49.082;9.102;2022-11-20T10:09:39;7.70;99.90
27890;DHT22;15238;49.082;9.102;2022-11-20T10:11:57;7.70;99.90
27890;DHT22;15238;49.082;9.102;2022-11-20T10:16:58;7.70;99.90
27890;DHT22;15238;49.082;9.102;2022-11-20T10:19:21;7.70;99.90
27890;DHT22;15238;49.082;9.102;2022-11-20T10:21:30;7.80;99.90
27890;DHT22;15238;49.082;9.102;2022-11-20T10:29:17;7.90;99.90
27890;DHT22;15238;49.082;9.102;2022-11-20T10:31:34;7.90;99.90
27890;DHT22;15238;49.082;9.102;2022-11-20T10:33:38;7.90;99.90
27890;DHT22;15238;49.082;9.102;2022-11-20T10:35:52;7.80;99.90
27890;DHT22;15238;49.082;9.102;2022-11-20T10:38:03;7.90;99.90
27890;DHT22;15238;49.082;9.102;2022-11-20T10:40:38;7.90;99.90
27890;DHT22;15238;49.082;9.102;2022-11-20T10:42:43;7.90;99.90
27890;DHT22;15238;49.082;9.102;2022-11-20T10:44:51;7.90;99.90
27890;DHT22;15238;49.082;9.102;2022-11-20T10:47:04;7.90;99.90
27890;DHT22;15238;49.082;9.102;2022-11-20T10:49:12;7.90;99.90
27890;DHT22;15238;49.082;9.102;2022-11-20T10:55:42;7.70;99.90
27890;DHT22;15238;49.082;9.102;2022-11-20T11:00:06;7.70;99.90
27890;DHT22;15238;49.082;9.102;2022-11-20T11:02:21;7.70;99.90
27890;DHT22;15238;49.082;9.102;2022-11-20T11:04:51;7.70;99.90
27890;DHT22;15238;49.082;9.102;2022-11-20T11:06:58;7.70;99.90
27890;DHT22;15238;49.082;9.102;2022-11-20T11:09:28;7.70;99.90
27890;DHT22;15238;49.082;9.102;2022-11-20T11:11:32;7.70;99.90
27890;DHT22;15238;49.082;9.102;2022-11-20T11:13:33;7.70;99.90
27890;DHT22;15238;49.082;9.102;2022-11-20T11:15:40;7.70;99.90
27890;DHT22;15238;49.082;9.102;2022-11-20T11:17:46;7.70;99.90
27890;DHT22;15238;49.082;9.102;2022-11-20T11:20:05;7.70;99.90
27890;DHT22;15238;49.082;9.102;2022-11-20T11:22:15;7.70;99.90
27890;DHT22;15238;49.082;9.102;2022-11-20T11:24:28;7.70;99.90
27890;DHT22;15238;49.082;9.102;2022-11-20T11:26:28;7.70;99.90
27890;DHT22;15238;49.082;9.102;2022-11-20T11:28:29;7.80;99.90
27890;DHT22;15238;49.082;9.102;2022-11-20T11:30:41;7.80;99.90
27890;DHT22;15238;49.082;9.102;2022-11-20T11:32:42;7.80;99.90
27890;DHT22;15238;49.082;9.102;2022-11-20T11:34:43;7.90;99.90
27890;DHT22;15238;49.082;9.102;2022-11-20T11:36:56;7.90;99.90
27890;DHT22;15238;49.082;9.102;2022-11-20T11:38:57;7.90;99.90
27890;DHT22;15238;49.082;9.102;2022-11-20T11:40:58;8.00;99.90
27890;DHT22;15238;49.082;9.102;2022-11-20T11:43:02;8.20;99.90
27890;DHT22;15238;49.082;9.102;2022-11-20T11:45:06;8.30;99.90
27890;DHT22;15238;49.082;9.102;2022-11-20T11:47:17;8.50;99.90
27890;DHT22;15238;49.082;9.102;2022-11-20T11:49:23;8.70;99.90
27890;DHT22;15238;49.082;9.102;2022-11-20T11:51:34;8.80;99.90
27890;DHT22;15238;49.082;9.102;2022-11-20T11:53:38;8.80;99.90
27890;DHT22;15238;49.082;9.102;2022-11-20T11:56:03;8.70;99.90
27890;DHT22;15238;49.082;9.102;2022-11-20T11:58:24;8.60;99.90
27890;DHT22;15238;49.082;9.102;2022-11-20T12:00:28;8.50;99.90
27890;DHT22;15238;49.082;9.102;2022-11-20T12:04:54;8.40;99.90
27890;DHT22;15238;49.082;9.102;2022-11-20T12:07:07;8.40;99.90
27890;DHT22;15238;49.082;9.102;2022-11-20T12:09:10;8.30;99.90
27890;DHT22;15238;49.082;9.102;2022-11-20T12:13:28;8.30;99.90
27890;DHT22;15238;49.082;9.102;2022-11-20T12:15:34;8.30;99.90
27890;DHT22;15238;49.082;9.102;2022-11-20T12:17:34;8.30;99.90
27890;DHT22;15238;49.082;9.102;2022-11-20T12:19:35;8.40;99.90
27890;DHT22;15238;49.082;9.102;2022-11-20T12:26:03;8.50;99.90
27890;DHT22;15238;49.082;9.102;2022-11-20T12:28:27;8.60;99.90
27890;DHT22;15238;49.082;9.102;2022-11-20T12:30:33;8.80;99.90
27890;DHT22;15238;49.082;9.102;2022-11-20T12:37:52;9.30;99.90
27890;DHT22;15238;49.082;9.102;2022-11-20T12:40:12;9.30;99.90
27890;DHT22;15238;49.082;9.102;2022-11-20T12:42:39;9.40;99.90
27890;DHT22;15238;49.082;9.102;2022-11-20T12:47:28;9.50;99.90
27890;DHT22;15238;49.082;9.102;2022-11-20T12:52:32;9.50;99.90
27890;DHT22;15238;49.082;9.102;2022-11-20T12:54:46;9.40;99.90
27890;DHT22;15238;49.082;9.102;2022-11-20T12:57:01;9.50;99.90
27890;DHT22;15238;49.082;9.102;2022-11-20T13:01:58;9.50;99.90
27890;DHT22;15238;49.082;9.102;2022-11-20T13:04:34;9.40;99.90
27890;DHT22;15238;49.082;9.102;2022-11-20T13:06:28;9.30;99.90
27890;DHT22;15238;49.082;9.102;2022-11-20T13:08:37;9.30;99.90
27890;DHT22;15238;49.082;9.102;2022-11-20T13:10:46;9.20;99.90
27890;DHT22;15238;49.082;9.102;2022-11-20T13:12:58;9.20;99.90
27890;DHT22;15238;49.082;9.102;2022-11-20T13:17:52;9.10;99.90
27890;DHT22;15238;49.082;9.102;2022-11-20T13:19:56;9.10;99.90
27890;DHT22;15238;49.082;9.102;2022-11-20T13:21:58;9.10;99.90
27890;DHT22;15238;49.082;9.102;2022-11-20T13:26:16;9.30;99.90
27890;DHT22;15238;49.082;9.102;2022-11-20T13:30:25;9.50;99.90
27890;DHT22;15238;49.082;9.102;2022-11-20T13:32:27;9.60;99.90
27890;DHT22;15238;49.082;9.102;2022-11-20T13:34:32;9.60;99.90
27890;DHT22;15238;49.082;9.102;2022-11-20T13:36:33;9.40;99.90
27890;DHT22;15238;49.082;9.102;2022-11-20T13:38:45;9.30;99.90
27890;DHT22;15238;49.082;9.102;2022-11-20T13:40:55;9.10;99.90
27890;DHT22;15238;49.082;9.102;2022-11-20T13:43:18;9.10;99.90
27890;DHT22;15238;49.082;9.102;2022-11-20T13:45:30;9.00;99.90
27890;DHT22;15238;49.082;9.102;2022-11-20T13:47:31;9.00;99.90
27890;DHT22;15238;49.082;9.102;2022-11-20T13:49:34;8.90;99.90
27890;DHT22;15238;49.082;9.102;2022-11-20T13:54:14;8.90;99.90
27890;DHT22;15238;49.082;9.102;2022-11-20T13:56:40;8.80;99.90
27890;DHT22;15238;49.082;9.102;2022-11-20T14:01:32;8.80;99.90
27890;DHT22;15238;49.082;9.102;2022-11-20T14:03:29;8.80;99.90
27890;DHT22;15238;49.082;9.102;2022-11-20T14:05:36;8.80;99.90
27890;DHT22;15238;49.082;9.102;2022-11-20T14:07:40;8.70;99.90